createdAt,value
2022-11-21T00:01:16.783Z,100010.63
2022-11-21T00:03:45.038Z,100017.02
2022-11-21T00:06:13.426Z,100014.63
2022-11-21T00:08:41.686Z,100014.29
2022-11-21T00:11:09.617Z,100012.30
2022-11-21T00:13:37.873Z,100011.23
2022-11-21T00:16:08.109Z,100012.95
2022-11-21T00:18:36.066Z,100013.90
2022-11-21T00:21:06.025Z,100010.49
2022-11-21T00:23:34.050Z,100009.94
2022-11-21T00:26:06.590Z,100011.34
2022-11-21T00:28:35.080Z,100016.17
2022-11-21T00:31:03.708Z,100013.73
2022-11-21T00:33:32.384Z,100010.42
2022-11-21T00:36:06.981Z,100007.51
2022-11-21T00:38:35.594Z,100006.63
2022-11-21T00:41:03.673Z,100005.89
2022-11-21T00:43:31.739Z,100001.59
2022-11-21T00:46:01.535Z,99999.93
2022-11-21T00:48:30.261Z,100006.20
2022-11-21T00:51:00.778Z,100009.44
2022-11-21T00:53:29.941Z,100010.71
2022-11-21T00:55:58.159Z,100013.06
2022-11-21T00:58:26.625Z,100012.10
2022-11-21T01:01:03.619Z,100012.77
2022-11-21T01:03:34.189Z,100014.60
2022-11-21T01:06:12.988Z,100009.05
2022-11-21T01:08:43.386Z,100004.14
2022-11-21T01:11:21.232Z,100009.29
2022-11-21T01:13:50.017Z,100008.15
2022-11-21T01:16:22.711Z,100008.17
2022-11-21T01:18:51.445Z,100006.77
2022-11-21T01:21:30.621Z,100004.05
2022-11-21T01:24:02.904Z,100003.77
2022-11-21T01:26:33.112Z,100002.55
2022-11-21T01:29:01.045Z,100000.23
2022-11-21T01:31:30.649Z,100000.67
2022-11-21T01:34:00.359Z,99996.70
2022-11-21T01:36:31.113Z,99998.33
2022-11-21T01:39:03.570Z,99999.66
2022-11-21T01:41:37.683Z,99998.30
2022-11-21T01:44:17.907Z,99989.55
2022-11-21T01:46:46.527Z,99987.23
2022-11-21T01:49:20.264Z,99984.29
2022-11-21T01:51:56.188Z,99989.17
2022-11-21T01:54:24.480Z,99990.16
2022-11-21T01:57:07.080Z,99990.84
2022-11-21T01:59:44.904Z,99991.75
2022-11-21T02:02:15.524Z,99991.25
2022-11-21T02:04:44.711Z,99982.50
2022-11-21T02:07:14.978Z,99987.23
2022-11-21T02:09:46.832Z,99987.19
2022-11-21T02:12:29.820Z,99987.55
2022-11-21T02:14:58.756Z,99984.62
2022-11-21T02:17:29.852Z,99983.52
2022-11-21T02:20:00.807Z,99976.39
2022-11-21T02:22:34.802Z,99978.71
2022-11-21T02:25:14.240Z,99976.23
2022-11-21T02:27:42.623Z,99976.52
2022-11-21T02:30:12.331Z,99970.23
2022-11-21T02:32:45.353Z,99969.38
2022-11-21T02:35:17.793Z,99964.50
2022-11-21T02:37:48.324Z,99960.74
2022-11-21T02:40:25.554Z,99962.73
2022-11-21T02:43:18.998Z,99961.98
2022-11-21T02:45:47.131Z,99955.28
2022-11-21T02:48:15.450Z,99945.05
2022-11-21T02:50:45.391Z,99936.63
2022-11-21T02:53:16.512Z,99932.15
2022-11-21T02:55:44.972Z,99931.04
2022-11-21T02:58:12.941Z,99925.52
2022-11-21T03:00:42.929Z,99923.86
2022-11-21T03:03:11.524Z,99919.88
2022-11-21T03:05:39.929Z,99915.75
2022-11-21T03:08:08.200Z,99914.80
2022-11-21T03:10:36.280Z,99910.30
2022-11-21T03:13:04.207Z,99905.61
2022-11-21T03:15:34.331Z,99902.59
2022-11-21T03:18:03.352Z,99897.15
2022-11-21T03:20:32.888Z,99897.97
2022-11-21T03:23:01.251Z,99892.13
2022-11-21T03:25:30.233Z,99892.74
2022-11-21T03:27:58.306Z,99888.40
2022-11-21T03:30:27.774Z,99887.80
2022-11-21T03:32:56.848Z,99889.00
2022-11-21T03:35:25.392Z,99889.93
2022-11-21T03:37:53.667Z,99890.59
2022-11-21T03:40:21.656Z,99884.85
2022-11-21T03:42:49.506Z,99880.65
2022-11-21T03:45:17.475Z,99883.98
2022-11-21T03:47:45.314Z,99881.36
2022-11-21T03:50:15.309Z,99879.67
2022-11-21T03:52:43.111Z,99880.86
2022-11-21T03:55:11.095Z,99880.02
2022-11-21T03:57:39.783Z,99873.60
2022-11-21T04:00:08.661Z,99867.02
2022-11-21T04:02:36.507Z,99862.24
2022-11-21T04:05:04.933Z,99859.49
2022-11-21T04:07:32.856Z,99855.98
2022-11-21T04:10:00.839Z,99853.42
2022-11-21T04:12:28.833Z,99849.05
2022-11-21T04:14:56.639Z,99851.91
2022-11-21T04:17:24.411Z,99848.70
2022-11-21T04:19:52.330Z,99845.52
2022-11-21T04:22:20.127Z,99843.56
2022-11-21T04:24:48.065Z,99841.79
2022-11-21T04:27:15.932Z,99841.15
2022-11-21T04:29:43.800Z,99839.42
2022-11-21T04:32:11.667Z,99835.09
2022-11-21T04:34:39.842Z,99829.15
2022-11-21T04:37:11.421Z,99825.73
2022-11-21T04:39:39.774Z,99823.23
2022-11-21T04:42:07.643Z,99818.19
2022-11-21T04:44:35.455Z,99816.59
2022-11-21T04:47:05.529Z,99815.79
2022-11-21T04:49:33.744Z,99809.52
2022-11-21T04:52:01.882Z,99813.32
2022-11-21T04:54:30.253Z,99805.40
2022-11-21T04:56:58.330Z,99805.08
2022-11-21T04:59:26.152Z,99802.32
2022-11-21T05:01:54.063Z,99798.95
2022-11-21T05:04:22.047Z,99794.92
2022-11-21T05:06:49.874Z,99793.79
2022-11-21T05:09:17.972Z,99791.69
2022-11-21T05:12:04.446Z,99782.59
2022-11-21T05:14:32.346Z,99784.22
2022-11-21T05:17:00.315Z,99787.98
2022-11-21T05:19:28.183Z,99785.00
2022-11-21T05:21:56.767Z,99781.11
2022-11-21T05:24:25.131Z,99781.36
2022-11-21T05:26:54.731Z,99775.77
2022-11-21T05:29:27.770Z,99771.84
2022-11-21T05:31:56.428Z,99767.72
2022-11-21T05:34:24.398Z,99760.66
2022-11-21T05:37:01.380Z,99762.09
2022-11-21T05:39:29.285Z,99755.67
2022-11-21T05:42:01.476Z,99753.07
2022-11-21T05:44:31.322Z,99750.39
2022-11-21T05:46:59.607Z,99748.04
2022-11-21T05:49:27.680Z,99745.96
2022-11-21T05:51:55.665Z,99746.81
2022-11-21T05:54:23.622Z,99747.91
2022-11-21T05:56:51.488Z,99745.42
2022-11-21T05:59:19.354Z,99740.45
2022-11-21T06:02:05.860Z,99740.77
2022-11-21T06:04:35.086Z,99742.83
2022-11-21T06:07:03.016Z,99745.09
2022-11-21T06:09:31.304Z,99741.59
2022-11-21T06:11:59.275Z,99742.82
2022-11-21T06:14:27.342Z,99740.09
2022-11-21T06:16:55.624Z,99746.10
2022-11-21T06:19:23.612Z,99745.55
2022-11-21T06:21:51.468Z,99745.84
2022-11-21T06:24:22.097Z,99741.77
2022-11-21T06:26:50.469Z,99739.00
2022-11-21T06:29:18.343Z,99735.63
2022-11-21T06:31:46.310Z,99735.02
2022-11-21T06:34:14.237Z,99732.02
2022-11-21T06:36:42.352Z,99733.06
2022-11-21T06:39:10.412Z,99733.45
2022-11-21T06:41:38.501Z,99728.98
2022-11-21T06:44:06.346Z,99731.20
2022-11-21T06:46:34.233Z,99726.70
2022-11-21T06:49:02.203Z,99730.02
2022-11-21T06:51:30.165Z,99728.48
2022-11-21T06:53:59.417Z,99728.67
2022-11-21T06:56:29.718Z,99725.39
2022-11-21T06:58:58.706Z,99726.86
2022-11-21T07:01:26.950Z,99727.66
2022-11-21T07:03:55.829Z,99725.17
2022-11-21T07:06:24.444Z,99725.35
2022-11-21T07:11:45.814Z,99723.04
2022-11-21T07:14:13.631Z,99728.42
2022-11-21T07:16:41.495Z,99725.54
2022-11-21T07:19:09.485Z,99722.14
2022-11-21T07:21:37.760Z,99723.06
2022-11-21T07:24:06.280Z,99720.77
2022-11-21T07:26:34.170Z,99716.16
2022-11-21T07:29:02.115Z,99716.52
2022-11-21T07:31:30.050Z,99711.05
2022-11-21T07:33:57.864Z,99711.63
2022-11-21T07:36:25.681Z,99710.66
2022-11-21T07:38:53.656Z,99709.59
2022-11-21T07:41:21.489Z,99707.76
2022-11-21T07:43:49.386Z,99707.55
2022-11-21T07:46:17.184Z,99702.82
2022-11-21T07:48:45.018Z,99702.08
2022-11-21T07:51:12.890Z,99704.27
2022-11-21T07:53:40.760Z,99704.34
2022-11-21T07:56:09.891Z,99703.13
2022-11-21T07:58:37.872Z,99706.00
2022-11-21T08:01:06.970Z,99706.05
2022-11-21T08:03:35.192Z,99710.56
2022-11-21T08:06:04.840Z,99706.16
2022-11-21T08:08:32.977Z,99705.15
2022-11-21T08:11:05.868Z,99705.91
2022-11-21T08:13:35.523Z,99700.21
2022-11-21T08:16:04.622Z,99696.23
2022-11-21T08:18:34.276Z,99696.14
2022-11-21T08:21:03.553Z,99695.06
2022-11-21T08:23:32.178Z,99692.01
2022-11-21T08:26:00.120Z,99689.85
2022-11-21T08:28:28.410Z,99691.36
2022-11-21T08:30:56.411Z,99693.73
2022-11-21T08:33:24.399Z,99693.58
2022-11-21T08:35:55.111Z,99688.06
2022-11-21T08:38:23.293Z,99689.16
2022-11-21T08:41:14.786Z,99689.65
2022-11-21T08:43:45.765Z,99691.24
2022-11-21T08:46:13.649Z,99694.29
2022-11-21T08:48:41.515Z,99697.48
2022-11-21T08:51:09.529Z,99697.30
2022-11-21T08:53:37.508Z,99698.27
2022-11-21T08:56:05.571Z,99697.33
2022-11-21T08:58:33.601Z,99697.09
2022-11-21T09:01:01.646Z,99699.96
2022-11-21T09:03:31.435Z,99695.60
2022-11-21T09:06:00.440Z,99691.96
2022-11-21T09:08:30.793Z,99695.96
2022-11-21T09:10:59.251Z,99697.28
2022-11-21T09:13:27.721Z,99695.85
2022-11-21T09:16:19.145Z,99698.54
2022-11-21T09:18:51.642Z,99699.38
2022-11-21T09:21:20.537Z,99699.20
2022-11-21T09:23:48.343Z,99700.66
2022-11-21T09:26:16.228Z,99702.77
2022-11-21T09:28:44.162Z,99697.52
2022-11-21T09:31:12.476Z,99694.40
2022-11-21T09:33:40.347Z,99694.85
2022-11-21T09:36:08.156Z,99693.77
2022-11-21T09:38:35.964Z,99695.61
2022-11-21T09:41:46.297Z,99692.64
2022-11-21T09:44:39.322Z,99696.39
2022-11-21T09:47:28.097Z,99691.86
2022-11-21T09:50:18.039Z,99689.55
2022-11-21T09:53:06.917Z,99688.63
2022-11-21T09:55:34.768Z,99693.52
2022-11-21T09:58:09.309Z,99691.86
2022-11-21T10:00:37.244Z,99690.23
2022-11-21T10:03:05.433Z,99691.51
2022-11-21T10:05:51.679Z,99690.43
2022-11-21T10:08:40.941Z,99685.24
2022-11-21T10:12:05.256Z,99685.06
2022-11-21T10:14:48.253Z,99685.68
2022-11-21T10:17:48.762Z,99685.23
2022-11-21T10:20:31.803Z,99684.28
2022-11-21T10:23:08.885Z,99686.65
2022-11-21T10:25:39.028Z,99683.36
2022-11-21T10:28:19.576Z,99686.59
2022-11-21T10:30:51.740Z,99689.83
2022-11-21T10:33:30.754Z,99689.91
2022-11-21T10:36:47.436Z,99694.00
2022-11-21T10:39:24.540Z,99695.59
2022-11-21T10:42:12.457Z,99691.09
2022-11-21T10:44:58.900Z,99691.00
2022-11-21T10:47:33.995Z,99690.69
2022-11-21T10:50:10.771Z,99689.59
2022-11-21T10:52:48.150Z,99685.33
2022-11-21T10:55:18.145Z,99687.36
2022-11-21T10:57:51.357Z,99689.56
2022-11-21T11:00:24.897Z,99692.95
2022-11-21T11:02:56.082Z,99688.21
2022-11-21T11:05:26.429Z,99690.30
2022-11-21T11:08:08.325Z,99691.46
2022-11-21T11:10:36.120Z,99691.92
2022-11-21T11:13:46.436Z,99690.11
2022-11-21T11:16:17.315Z,99690.56
2022-11-21T11:18:57.651Z,99692.16
2022-11-21T11:21:31.255Z,99694.05
2022-11-21T11:24:11.453Z,99693.23
2022-11-21T11:26:49.043Z,99691.17
2022-11-21T11:29:20.467Z,99695.63
2022-11-21T11:31:56.698Z,99698.40
2022-11-21T11:35:06.578Z,99696.30
2022-11-21T11:37:55.530Z,99696.59
2022-11-21T11:40:42.899Z,99701.77
2022-11-21T11:43:35.749Z,99701.62
2022-11-21T11:46:35.718Z,99697.84
2022-11-21T11:49:20.184Z,99703.85
2022-11-21T11:51:54.790Z,99710.80
2022-11-21T11:54:48.584Z,99714.09
2022-11-21T11:57:17.510Z,99713.15
2022-11-21T11:59:57.910Z,99716.11
2022-11-21T12:02:40.922Z,99720.39
2022-11-21T12:05:20.236Z,99729.30
2022-11-21T12:11:24.740Z,99736.86
2022-11-21T12:13:57.502Z,99736.59
2022-11-21T12:16:26.912Z,99737.84
2022-11-21T12:19:11.012Z,99745.28
2022-11-21T12:21:38.870Z,99748.45
2022-11-21T12:24:11.260Z,99751.94
2022-11-21T12:26:48.283Z,99749.77
2022-11-21T12:29:34.972Z,99749.70
2022-11-21T12:32:30.533Z,99748.79
2022-11-21T12:35:04.164Z,99747.10
2022-11-21T12:38:19.697Z,99747.73
2022-11-21T12:40:56.589Z,99748.43
2022-11-21T12:43:53.102Z,99749.46
2022-11-21T12:46:34.877Z,99750.98
2022-11-21T12:49:59.833Z,99749.95
2022-11-21T12:53:00.505Z,99744.55
2022-11-21T12:55:40.911Z,99752.46
2022-11-21T12:58:32.986Z,99754.17
2022-11-21T13:01:22.316Z,99755.40
2022-11-21T13:04:15.716Z,99760.91
2022-11-21T13:06:46.982Z,99759.52
2022-11-21T13:09:19.181Z,99761.52
2022-11-21T13:12:00.593Z,99760.50
2022-11-21T13:14:45.269Z,99767.15
2022-11-21T13:17:25.741Z,99771.14
2022-11-21T13:20:05.317Z,99771.84
2022-11-21T13:22:36.286Z,99769.21
2022-11-21T13:25:30.129Z,99772.02
2022-11-21T13:28:13.379Z,99780.70
2022-11-21T13:30:50.957Z,99786.89
2022-11-21T13:33:37.340Z,99783.87
2022-11-21T13:36:08.021Z,99789.05
2022-11-21T13:38:51.290Z,99787.20
2022-11-21T13:41:53.480Z,99789.45
2022-11-21T13:44:33.685Z,99790.64
2022-11-21T13:47:02.886Z,99790.65
2022-11-21T13:49:57.020Z,99792.59
2022-11-21T13:52:55.997Z,99797.63
2022-11-21T13:55:51.313Z,99798.60
2022-11-21T13:58:34.469Z,99803.94
2022-11-21T14:01:23.280Z,99805.16
2022-11-21T14:04:09.588Z,99804.09
2022-11-21T14:06:43.216Z,99806.80
2022-11-21T14:09:28.273Z,99809.84
2022-11-21T14:12:30.019Z,99813.05
2022-11-21T14:15:00.674Z,99816.28
2022-11-21T14:17:48.965Z,99821.27
2022-11-21T14:20:19.296Z,99818.20
2022-11-21T14:22:54.875Z,99830.42
2022-11-21T14:25:36.451Z,99832.20
2022-11-21T14:28:06.884Z,99835.92
2022-11-21T14:30:40.157Z,99841.80
2022-11-21T14:33:28.623Z,99842.42
2022-11-21T14:36:19.290Z,99849.43
2022-11-21T14:39:13.838Z,99850.96
2022-11-21T14:41:39.360Z,99853.05
2022-11-21T14:44:16.601Z,99859.87
2022-11-21T14:46:47.354Z,99857.70
2022-11-21T14:49:21.847Z,99862.02
2022-11-21T14:52:11.037Z,99861.60
2022-11-21T14:55:06.099Z,99869.73
2022-11-21T14:57:41.796Z,99867.14
2022-11-21T15:00:43.479Z,99865.48
2022-11-21T15:03:04.657Z,99870.58
2022-11-21T15:06:00.813Z,99868.19
2022-11-21T15:11:13.715Z,99869.73
2022-11-21T15:14:12.315Z,99876.30
2022-11-21T15:16:33.084Z,99882.62
2022-11-21T15:19:01.036Z,99886.66
2022-11-21T15:21:29.738Z,99889.06
2022-11-21T15:23:57.626Z,99888.81
2022-11-21T15:26:33.969Z,99895.88
2022-11-21T15:29:02.118Z,99892.18
2022-11-21T15:31:30.002Z,99894.15
2022-11-21T15:37:12.768Z,99894.23
2022-11-21T15:39:45.546Z,99888.33
2022-11-21T15:42:50.164Z,99883.70
2022-11-21T15:45:26.988Z,99879.80
2022-11-21T15:47:56.073Z,99878.46
2022-11-21T15:50:25.110Z,99875.32
2022-11-21T15:52:53.379Z,99878.70
2022-11-21T15:55:31.500Z,99877.50
2022-11-21T15:57:59.372Z,99874.77
2022-11-21T16:00:27.233Z,99874.23
2022-11-21T16:02:55.102Z,99878.20
2022-11-21T16:05:23.072Z,99880.02
2022-11-21T16:07:51.047Z,99879.52
2022-11-21T16:10:26.101Z,99879.24
2022-11-21T16:12:56.168Z,99880.15
2022-11-21T16:15:24.115Z,99874.23
2022-11-21T16:17:52.649Z,99873.85
2022-11-21T16:20:20.781Z,99871.10
2022-11-21T16:22:50.002Z,99873.36
2022-11-21T16:25:18.104Z,99874.88
2022-11-21T16:27:47.195Z,99875.80
2022-11-21T16:30:15.421Z,99874.75
2022-11-21T16:32:43.438Z,99874.42
2022-11-21T16:35:11.406Z,99872.73
2022-11-21T16:37:40.199Z,99871.59
2022-11-21T16:40:10.005Z,99871.52
2022-11-21T16:42:37.877Z,99876.58
2022-11-21T16:45:06.182Z,99876.93
2022-11-21T16:47:37.247Z,99879.08
2022-11-21T16:50:05.910Z,99880.05
2022-11-21T16:52:35.739Z,99879.05
2022-11-21T16:55:04.592Z,99874.40
2022-11-21T16:57:33.375Z,99878.52
2022-11-21T17:00:01.247Z,99877.44
2022-11-21T17:02:29.185Z,99877.78
2022-11-21T17:04:57.382Z,99870.61
2022-11-21T17:07:25.284Z,99867.43
2022-11-21T17:09:53.147Z,99871.15
2022-11-21T17:12:20.999Z,99876.32
2022-11-21T17:14:52.794Z,99878.09
2022-11-21T17:17:20.662Z,99881.19
2022-11-21T17:19:48.981Z,99882.48
2022-11-21T17:22:20.185Z,99883.65
2022-11-21T17:24:53.439Z,99886.22
2022-11-21T17:27:22.857Z,99887.09
2022-11-21T17:29:51.324Z,99886.88
2022-11-21T17:32:19.236Z,99889.33
2022-11-21T17:34:47.103Z,99887.58
2022-11-21T17:37:14.976Z,99890.39
2022-11-21T17:39:42.890Z,99896.64
2022-11-21T17:42:10.887Z,99899.38
2022-11-21T17:44:38.748Z,99907.05
2022-11-21T17:47:06.795Z,99906.93
2022-11-21T17:49:37.308Z,99903.84
2022-11-21T17:52:06.837Z,99907.67
2022-11-21T17:54:34.914Z,99909.45
2022-11-21T17:57:03.186Z,99910.72
2022-11-21T17:59:31.273Z,99911.22
2022-11-21T18:01:59.463Z,99912.89
2022-11-21T18:04:28.570Z,99911.30
2022-11-21T18:06:56.799Z,99909.77
2022-11-21T18:09:24.775Z,99913.80
2022-11-21T18:11:52.646Z,99917.89
2022-11-21T18:14:20.613Z,99911.64
2022-11-21T18:16:53.103Z,99913.52
2022-11-21T18:19:22.192Z,99915.64
2022-11-21T18:21:51.856Z,99914.17
2022-11-21T18:24:19.727Z,99905.45
2022-11-21T18:26:47.742Z,99908.24
2022-11-21T18:32:04.051Z,99911.44
2022-11-21T18:34:31.953Z,99910.08
2022-11-21T18:36:59.790Z,99913.61
2022-11-21T18:39:27.753Z,99913.77
2022-11-21T18:41:55.827Z,99910.58
2022-11-21T18:44:23.900Z,99917.08
2022-11-21T18:46:52.019Z,99917.77
2022-11-21T18:49:19.987Z,99920.13
2022-11-21T18:51:48.851Z,99925.76
2022-11-21T18:54:17.365Z,99925.95
2022-11-21T18:56:45.390Z,99931.55
2022-11-21T18:59:13.255Z,99931.66
2022-11-21T19:01:41.326Z,99940.50
2022-11-21T19:04:09.606Z,99940.30
2022-11-21T19:06:37.517Z,99943.09
2022-11-21T19:09:05.511Z,99940.05
2022-11-21T19:11:33.328Z,99942.00
2022-11-21T19:14:01.329Z,99945.05
2022-11-21T19:16:36.856Z,99950.05
2022-11-21T19:21:57.868Z,99948.23
2022-11-21T19:24:25.792Z,99944.59
2022-11-21T19:26:53.620Z,99944.87
2022-11-21T19:29:21.536Z,99941.45
2022-11-21T19:31:49.737Z,99941.86
2022-11-21T19:34:17.908Z,99937.39
2022-11-21T19:36:46.073Z,99937.83
2022-11-21T19:39:14.382Z,99938.10
2022-11-21T19:41:42.253Z,99937.89
2022-11-21T19:44:11.585Z,99935.05
2022-11-21T19:46:40.064Z,99934.73
2022-11-21T19:49:10.860Z,99932.05
2022-11-21T19:51:41.854Z,99929.56
2022-11-21T19:54:12.341Z,99923.67
2022-11-21T19:56:40.476Z,99926.66
2022-11-21T19:59:12.618Z,99919.25
2022-11-21T20:01:40.925Z,99913.20
2022-11-21T20:04:09.128Z,99907.94
2022-11-21T20:06:41.549Z,99911.59
2022-11-21T20:09:12.056Z,99911.86
2022-11-21T20:11:41.686Z,99910.07
2022-11-21T20:14:10.024Z,99911.58
2022-11-21T20:16:40.921Z,99908.23
2022-11-21T20:19:12.335Z,99905.96
2022-11-21T20:21:40.895Z,99906.18
2022-11-21T20:24:08.902Z,99905.19
2022-11-21T20:26:37.359Z,99907.97
2022-11-21T20:29:06.304Z,99907.09
2022-11-21T20:31:37.777Z,99908.20
2022-11-21T20:34:09.894Z,99904.22
2022-11-21T20:36:38.200Z,99913.59
2022-11-21T20:39:15.615Z,99919.38
2022-11-21T20:41:45.417Z,99913.10
2022-11-21T20:45:07.045Z,99914.20
2022-11-21T20:47:03.215Z,99912.52
2022-11-21T20:49:31.975Z,99919.86
2022-11-21T20:54:48.009Z,99936.19
2022-11-21T20:57:16.061Z,99934.91
2022-11-21T20:59:43.956Z,99932.86
2022-11-21T21:02:13.903Z,99933.45
2022-11-21T21:04:42.377Z,99936.69
2022-11-21T21:07:10.463Z,99933.45
2022-11-21T21:09:38.455Z,99930.98
2022-11-21T21:12:06.597Z,99924.48
2022-11-21T21:14:34.629Z,99916.42
2022-11-21T21:17:02.523Z,99911.49
2022-11-21T21:19:30.576Z,99911.91
2022-11-21T21:21:58.974Z,99918.23
2022-11-21T21:24:27.760Z,99911.48
2022-11-21T21:26:55.568Z,99909.77
2022-11-21T21:29:23.492Z,99907.94
2022-11-21T21:31:52.558Z,99906.55
2022-11-21T21:34:22.436Z,99904.36
2022-11-21T21:36:51.551Z,99896.98
2022-11-21T21:39:19.621Z,99893.48
2022-11-21T21:41:47.994Z,99894.16
2022-11-21T21:44:16.791Z,99887.55
2022-11-21T21:46:45.102Z,99883.79
2022-11-21T21:49:13.358Z,99888.95
2022-11-21T21:51:41.525Z,99895.57
2022-11-21T21:54:20.475Z,99896.42
2022-11-21T21:56:48.519Z,99894.77
2022-11-21T21:59:18.305Z,99886.63
2022-11-21T22:01:46.894Z,99881.30
2022-11-21T22:04:14.920Z,99878.08
2022-11-21T22:06:42.895Z,99875.95
2022-11-21T22:09:10.818Z,99862.58
2022-11-21T22:11:39.423Z,99855.55
2022-11-21T22:14:12.119Z,99858.08
2022-11-21T22:16:40.962Z,99854.71
2022-11-21T22:19:09.464Z,99855.69
2022-11-21T22:21:38.565Z,99860.37
2022-11-21T22:24:30.493Z,99861.67
2022-11-21T22:26:58.513Z,99862.90
2022-11-21T22:29:26.484Z,99863.29
2022-11-21T22:31:54.327Z,99865.68
2022-11-21T22:34:22.662Z,99877.86
2022-11-21T22:36:50.475Z,99872.70
2022-11-21T22:39:18.378Z,99868.96
2022-11-21T22:41:46.294Z,99874.77
2022-11-21T22:44:14.266Z,99880.90
2022-11-21T22:46:42.221Z,99882.20
2022-11-21T22:49:10.125Z,99881.45
2022-11-21T22:51:38.009Z,99883.75
2022-11-21T22:54:05.912Z,99887.77
2022-11-21T22:56:33.793Z,99894.83
2022-11-21T22:59:01.762Z,99899.27
2022-11-21T23:01:29.787Z,99903.40
2022-11-21T23:03:57.749Z,99908.23
2022-11-21T23:06:27.200Z,99914.02
2022-11-21T23:08:56.744Z,99913.81
2022-11-21T23:11:36.370Z,99914.48
2022-11-21T23:14:08.629Z,99916.59
2022-11-21T23:16:37.041Z,99922.88
2022-11-21T23:19:05.030Z,99931.95
2022-11-21T23:21:32.947Z,99939.14
2022-11-21T23:24:00.903Z,99934.66
2022-11-21T23:26:28.786Z,99933.15
2022-11-21T23:28:56.701Z,99932.83
2022-11-21T23:31:24.663Z,99930.59
2022-11-21T23:33:53.001Z,99931.02
2022-11-21T23:36:20.886Z,99944.21
2022-11-21T23:38:48.764Z,99956.96
2022-11-21T23:41:16.624Z,99958.50
2022-11-21T23:43:44.543Z,99961.94
2022-11-21T23:46:12.427Z,99959.13
2022-11-21T23:48:40.411Z,99961.04
2022-11-21T23:51:08.791Z,99966.65
2022-11-21T23:53:36.693Z,99952.34
2022-11-21T23:56:04.874Z,99941.33
2022-11-21T23:58:32.906Z,99937.95
